sensor_id;sensor_type;location;lat;lon;timestamp;temperature;humidity
51914;DHT22;37940;53.002;6.930;2023-03-14T00:01:47;8.50;99.90
51914;DHT22;37940;53.002;6.930;2023-03-14T00:04:14;8.60;99.90
51914;DHT22;37940;53.002;6.930;2023-03-14T00:06:40;8.70;99.90
51914;DHT22;37940;53.002;6.930;2023-03-14T00:09:05;8.70;99.90
51914;DHT22;37940;53.002;6.930;2023-03-14T00:11:31;8.80;99.90
51914;DHT22;37940;53.002;6.930;2023-03-14T00:13:58;8.90;99.90
51914;DHT22;37940;53.002;6.930;2023-03-14T00:16:26;8.90;99.90
51914;DHT22;37940;53.002;6.930;2023-03-14T00:18:51;9.00;99.90
51914;DHT22;37940;53.002;6.930;2023-03-14T00:21:18;9.10;99.90
51914;DHT22;37940;53.002;6.930;2023-03-14T00:23:43;9.20;99.90
51914;DHT22;37940;53.002;6.930;2023-03-14T00:26:11;9.30;99.90
51914;DHT22;37940;53.002;6.930;2023-03-14T00:28:39;9.30;99.90
51914;DHT22;37940;53.002;6.930;2023-03-14T00:31:09;9.40;99.90
51914;DHT22;37940;53.002;6.930;2023-03-14T00:33:36;9.40;99.90
51914;DHT22;37940;53.002;6.930;2023-03-14T00:36:04;9.60;99.90
51914;DHT22;37940;53.002;6.930;2023-03-14T00:38:32;9.60;99.90
51914;DHT22;37940;53.002;6.930;2023-03-14T00:40:58;9.60;99.90
51914;DHT22;37940;53.002;6.930;2023-03-14T00:43:24;9.60;99.90
51914;DHT22;37940;53.002;6.930;2023-03-14T00:45:51;9.60;99.90
51914;DHT22;37940;53.002;6.930;2023-03-14T00:48:18;9.70;99.90
51914;DHT22;37940;53.002;6.930;2023-03-14T00:50:44;9.70;99.90
51914;DHT22;37940;53.002;6.930;2023-03-14T00:53:10;9.70;99.90
51914;DHT22;37940;53.002;6.930;2023-03-14T00:55:40;9.70;99.90
51914;DHT22;37940;53.002;6.930;2023-03-14T00:58:06;9.70;99.90
51914;DHT22;37940;53.002;6.930;2023-03-14T01:00:32;9.70;99.90
51914;DHT22;37940;53.002;6.930;2023-03-14T01:02:58;9.70;99.90
51914;DHT22;37940;53.002;6.930;2023-03-14T01:05:24;9.70;99.90
51914;DHT22;37940;53.002;6.930;2023-03-14T01:07:50;9.80;99.90
51914;DHT22;37940;53.002;6.930;2023-03-14T01:10:16;9.80;99.90
51914;DHT22;37940;53.002;6.930;2023-03-14T01:12:42;9.80;99.90
51914;DHT22;37940;53.002;6.930;2023-03-14T01:15:08;9.90;99.90
51914;DHT22;37940;53.002;6.930;2023-03-14T01:17:34;9.90;99.90
51914;DHT22;37940;53.002;6.930;2023-03-14T01:20:00;9.80;99.90
51914;DHT22;37940;53.002;6.930;2023-03-14T01:22:26;9.80;99.90
51914;DHT22;37940;53.002;6.930;2023-03-14T01:24:52;9.80;99.90
51914;DHT22;37940;53.002;6.930;2023-03-14T01:27:18;9.90;99.90
51914;DHT22;37940;53.002;6.930;2023-03-14T01:29:43;9.90;99.90
51914;DHT22;37940;53.002;6.930;2023-03-14T01:32:09;9.90;99.90
51914;DHT22;37940;53.002;6.930;2023-03-14T01:34:35;9.90;99.90
51914;DHT22;37940;53.002;6.930;2023-03-14T01:37:00;9.90;99.90
51914;DHT22;37940;53.002;6.930;2023-03-14T01:39:26;9.90;99.90
51914;DHT22;37940;53.002;6.930;2023-03-14T01:41:53;9.80;99.90
51914;DHT22;37940;53.002;6.930;2023-03-14T01:44:19;9.80;99.90
51914;DHT22;37940;53.002;6.930;2023-03-14T01:46:46;9.80;99.90
51914;DHT22;37940;53.002;6.930;2023-03-14T01:49:24;9.80;99.90
51914;DHT22;37940;53.002;6.930;2023-03-14T01:51:56;9.80;99.90
51914;DHT22;37940;53.002;6.930;2023-03-14T01:54:34;9.80;99.90
51914;DHT22;37940;53.002;6.930;2023-03-14T01:57:20;9.70;99.90
51914;DHT22;37940;53.002;6.930;2023-03-14T02:00:01;9.70;99.90
51914;DHT22;37940;53.002;6.930;2023-03-14T02:02:29;9.70;99.90
51914;DHT22;37940;53.002;6.930;2023-03-14T02:04:57;9.70;99.90
51914;DHT22;37940;53.002;6.930;2023-03-14T02:07:49;9.70;99.90
51914;DHT22;37940;53.002;6.930;2023-03-14T02:10:16;9.80;99.90
51914;DHT22;37940;53.002;6.930;2023-03-14T02:12:45;9.70;99.90
51914;DHT22;37940;53.002;6.930;2023-03-14T02:15:12;9.70;99.90
51914;DHT22;37940;53.002;6.930;2023-03-14T02:17:38;9.70;99.90
51914;DHT22;37940;53.002;6.930;2023-03-14T02:22:46;9.70;99.90
51914;DHT22;37940;53.002;6.930;2023-03-14T02:27:47;9.70;99.90
51914;DHT22;37940;53.002;6.930;2023-03-14T02:30:22;9.70;99.90
51914;DHT22;37940;53.002;6.930;2023-03-14T02:32:51;9.70;99.90
51914;DHT22;37940;53.002;6.930;2023-03-14T02:35:24;9.70;99.90
51914;DHT22;37940;53.002;6.930;2023-03-14T02:40:19;9.70;99.90
51914;DHT22;37940;53.002;6.930;2023-03-14T02:42:45;9.70;99.90
51914;DHT22;37940;53.002;6.930;2023-03-14T02:47:39;9.60;99.90
51914;DHT22;37940;53.002;6.930;2023-03-14T02:50:13;9.60;99.90
51914;DHT22;37940;53.002;6.930;2023-03-14T02:52:40;9.50;99.90
51914;DHT22;37940;53.002;6.930;2023-03-14T02:55:06;9.40;99.90
51914;DHT22;37940;53.002;6.930;2023-03-14T02:57:32;9.40;99.90
51914;DHT22;37940;53.002;6.930;2023-03-14T03:00:01;9.40;99.90
51914;DHT22;37940;53.002;6.930;2023-03-14T03:02:30;9.30;99.90
51914;DHT22;37940;53.002;6.930;2023-03-14T03:04:56;9.30;99.90
51914;DHT22;37940;53.002;6.930;2023-03-14T03:07:22;9.20;99.90
51914;DHT22;37940;53.002;6.930;2023-03-14T03:09:48;9.20;99.90
51914;DHT22;37940;53.002;6.930;2023-03-14T03:12:13;9.20;99.90
51914;DHT22;37940;53.002;6.930;2023-03-14T03:14:39;9.20;99.90
51914;DHT22;37940;53.002;6.930;2023-03-14T03:17:05;9.20;99.90
51914;DHT22;37940;53.002;6.930;2023-03-14T03:19:32;9.30;99.90
51914;DHT22;37940;53.002;6.930;2023-03-14T03:21:58;9.30;99.90
51914;DHT22;37940;53.002;6.930;2023-03-14T03:24:24;9.30;99.90
51914;DHT22;37940;53.002;6.930;2023-03-14T03:26:50;9.30;99.90
51914;DHT22;37940;53.002;6.930;2023-03-14T03:29:16;9.40;99.90
51914;DHT22;37940;53.002;6.930;2023-03-14T03:31:41;9.30;99.90
51914;DHT22;37940;53.002;6.930;2023-03-14T03:34:07;9.30;99.90
51914;DHT22;37940;53.002;6.930;2023-03-14T03:36:33;9.30;99.90
51914;DHT22;37940;53.002;6.930;2023-03-14T03:38:59;9.30;99.90
51914;DHT22;37940;53.002;6.930;2023-03-14T03:41:25;9.40;99.90
51914;DHT22;37940;53.002;6.930;2023-03-14T03:43:51;9.30;99.90
51914;DHT22;37940;53.002;6.930;2023-03-14T03:46:16;9.30;99.90
51914;DHT22;37940;53.002;6.930;2023-03-14T03:48:42;9.30;99.90
51914;DHT22;37940;53.002;6.930;2023-03-14T03:51:12;9.30;99.90
51914;DHT22;37940;53.002;6.930;2023-03-14T03:53:39;9.30;99.90
51914;DHT22;37940;53.002;6.930;2023-03-14T03:56:05;9.30;99.90
51914;DHT22;37940;53.002;6.930;2023-03-14T03:58:31;9.30;99.90
51914;DHT22;37940;53.002;6.930;2023-03-14T04:00:57;9.30;99.90
51914;DHT22;37940;53.002;6.930;2023-03-14T04:03:23;9.30;99.90
51914;DHT22;37940;53.002;6.930;2023-03-14T04:06:08;9.20;99.90
51914;DHT22;37940;53.002;6.930;2023-03-14T04:08:34;9.20;99.90
51914;DHT22;37940;53.002;6.930;2023-03-14T04:11:01;9.20;99.90
51914;DHT22;37940;53.002;6.930;2023-03-14T04:13:27;9.20;99.90
51914;DHT22;37940;53.002;6.930;2023-03-14T04:15:54;9.20;99.90
51914;DHT22;37940;53.002;6.930;2023-03-14T04:18:20;9.20;99.90
51914;DHT22;37940;53.002;6.930;2023-03-14T04:20:51;9.20;99.90
51914;DHT22;37940;53.002;6.930;2023-03-14T04:23:16;9.20;99.90
51914;DHT22;37940;53.002;6.930;2023-03-14T04:25:42;9.20;99.90
51914;DHT22;37940;53.002;6.930;2023-03-14T04:28:08;9.10;99.90
51914;DHT22;37940;53.002;6.930;2023-03-14T04:30:34;9.10;99.90
51914;DHT22;37940;53.002;6.930;2023-03-14T04:32:59;9.10;99.90
51914;DHT22;37940;53.002;6.930;2023-03-14T04:35:25;9.10;99.90
51914;DHT22;37940;53.002;6.930;2023-03-14T04:37:51;9.00;99.90
51914;DHT22;37940;53.002;6.930;2023-03-14T04:40:17;8.90;99.90
51914;DHT22;37940;53.002;6.930;2023-03-14T04:42:43;8.90;99.90
51914;DHT22;37940;53.002;6.930;2023-03-14T04:45:09;8.90;99.90
51914;DHT22;37940;53.002;6.930;2023-03-14T04:47:35;8.80;99.90
51914;DHT22;37940;53.002;6.930;2023-03-14T04:50:01;8.80;99.90
51914;DHT22;37940;53.002;6.930;2023-03-14T04:52:27;8.90;99.90
51914;DHT22;37940;53.002;6.930;2023-03-14T04:54:52;8.80;99.90
51914;DHT22;37940;53.002;6.930;2023-03-14T04:57:18;8.90;99.90
51914;DHT22;37940;53.002;6.930;2023-03-14T04:59:44;8.80;99.90
51914;DHT22;37940;53.002;6.930;2023-03-14T05:02:10;8.80;99.90
51914;DHT22;37940;53.002;6.930;2023-03-14T05:04:35;8.80;99.90
51914;DHT22;37940;53.002;6.930;2023-03-14T05:07:01;8.80;99.90
51914;DHT22;37940;53.002;6.930;2023-03-14T05:09:27;8.80;99.90
51914;DHT22;37940;53.002;6.930;2023-03-14T05:11:53;8.80;99.90
51914;DHT22;37940;53.002;6.930;2023-03-14T05:14:18;8.80;99.90
51914;DHT22;37940;53.002;6.930;2023-03-14T05:16:44;8.70;99.90
51914;DHT22;37940;53.002;6.930;2023-03-14T05:19:11;8.70;99.90
51914;DHT22;37940;53.002;6.930;2023-03-14T05:21:37;8.70;99.90
51914;DHT22;37940;53.002;6.930;2023-03-14T05:24:03;8.60;99.90
51914;DHT22;37940;53.002;6.930;2023-03-14T05:26:28;8.60;99.90
51914;DHT22;37940;53.002;6.930;2023-03-14T05:28:54;8.60;99.90
51914;DHT22;37940;53.002;6.930;2023-03-14T05:31:20;8.60;99.90
51914;DHT22;37940;53.002;6.930;2023-03-14T05:33:46;8.60;99.90
51914;DHT22;37940;53.002;6.930;2023-03-14T05:36:11;8.70;99.90
51914;DHT22;37940;53.002;6.930;2023-03-14T05:38:37;8.60;99.90
51914;DHT22;37940;53.002;6.930;2023-03-14T05:41:03;8.60;99.90
51914;DHT22;37940;53.002;6.930;2023-03-14T05:43:29;8.70;99.90
51914;DHT22;37940;53.002;6.930;2023-03-14T05:45:54;8.90;99.90
51914;DHT22;37940;53.002;6.930;2023-03-14T05:48:20;8.60;99.90
51914;DHT22;37940;53.002;6.930;2023-03-14T05:50:47;8.70;99.90
51914;DHT22;37940;53.002;6.930;2023-03-14T05:53:13;8.70;99.90
51914;DHT22;37940;53.002;6.930;2023-03-14T05:55:40;8.70;99.90
51914;DHT22;37940;53.002;6.930;2023-03-14T05:58:06;8.70;99.90
51914;DHT22;37940;53.002;6.930;2023-03-14T06:00:31;8.70;99.90
51914;DHT22;37940;53.002;6.930;2023-03-14T06:02:57;8.70;99.90
51914;DHT22;37940;53.002;6.930;2023-03-14T06:05:23;8.60;99.90
51914;DHT22;37940;53.002;6.930;2023-03-14T06:07:49;8.60;99.90
51914;DHT22;37940;53.002;6.930;2023-03-14T06:10:15;8.70;99.90
51914;DHT22;37940;53.002;6.930;2023-03-14T06:12:40;8.50;99.90
51914;DHT22;37940;53.002;6.930;2023-03-14T06:15:07;8.60;99.90
51914;DHT22;37940;53.002;6.930;2023-03-14T06:17:32;8.50;99.90
51914;DHT22;37940;53.002;6.930;2023-03-14T06:19:58;8.60;99.90
51914;DHT22;37940;53.002;6.930;2023-03-14T06:22:24;8.50;99.90
51914;DHT22;37940;53.002;6.930;2023-03-14T06:24:50;8.50;99.90
51914;DHT22;37940;53.002;6.930;2023-03-14T06:27:15;8.60;99.90
51914;DHT22;37940;53.002;6.930;2023-03-14T06:29:41;8.50;99.90
51914;DHT22;37940;53.002;6.930;2023-03-14T06:32:07;8.50;99.90
51914;DHT22;37940;53.002;6.930;2023-03-14T06:34:33;8.50;99.90
51914;DHT22;37940;53.002;6.930;2023-03-14T06:36:58;8.50;99.90
51914;DHT22;37940;53.002;6.930;2023-03-14T06:39:24;8.50;99.90
51914;DHT22;37940;53.002;6.930;2023-03-14T06:41:50;8.50;99.90
51914;DHT22;37940;53.002;6.930;2023-03-14T06:44:16;8.50;99.90
51914;DHT22;37940;53.002;6.930;2023-03-14T06:46:41;8.50;99.90
51914;DHT22;37940;53.002;6.930;2023-03-14T06:49:07;8.50;99.90
51914;DHT22;37940;53.002;6.930;2023-03-14T06:51:33;8.60;99.90
51914;DHT22;37940;53.002;6.930;2023-03-14T06:53:59;8.50;99.90
51914;DHT22;37940;53.002;6.930;2023-03-14T06:56:25;8.60;99.90
51914;DHT22;37940;53.002;6.930;2023-03-14T06:58:50;8.80;99.90
51914;DHT22;37940;53.002;6.930;2023-03-14T07:01:28;8.60;99.90
51914;DHT22;37940;53.002;6.930;2023-03-14T07:03:54;8.60;99.90
51914;DHT22;37940;53.002;6.930;2023-03-14T07:06:20;8.60;99.90
51914;DHT22;37940;53.002;6.930;2023-03-14T07:08:47;8.60;99.90
51914;DHT22;37940;53.002;6.930;2023-03-14T07:11:12;8.60;99.90
51914;DHT22;37940;53.002;6.930;2023-03-14T07:13:38;8.90;99.90
51914;DHT22;37940;53.002;6.930;2023-03-14T07:16:05;8.50;99.90
51914;DHT22;37940;53.002;6.930;2023-03-14T07:18:31;8.50;99.90
51914;DHT22;37940;53.002;6.930;2023-03-14T07:20:57;8.50;99.90
51914;DHT22;37940;53.002;6.930;2023-03-14T07:23:23;8.60;99.90
51914;DHT22;37940;53.002;6.930;2023-03-14T07:25:48;8.60;99.90
51914;DHT22;37940;53.002;6.930;2023-03-14T07:28:14;8.40;99.90
51914;DHT22;37940;53.002;6.930;2023-03-14T07:30:40;8.40;99.90
51914;DHT22;37940;53.002;6.930;2023-03-14T07:33:06;7.70;99.90
51914;DHT22;37940;53.002;6.930;2023-03-14T07:35:31;7.40;99.90
51914;DHT22;37940;53.002;6.930;2023-03-14T07:37:57;7.10;99.90
51914;DHT22;37940;53.002;6.930;2023-03-14T07:40:23;6.90;99.90
51914;DHT22;37940;53.002;6.930;2023-03-14T07:42:48;6.70;99.90
51914;DHT22;37940;53.002;6.930;2023-03-14T07:45:15;7.30;99.90
51914;DHT22;37940;53.002;6.930;2023-03-14T07:47:41;6.20;99.90
51914;DHT22;37940;53.002;6.930;2023-03-14T07:50:07;6.00;99.90
51914;DHT22;37940;53.002;6.930;2023-03-14T07:52:33;5.80;99.90
51914;DHT22;37940;53.002;6.930;2023-03-14T07:54:59;5.60;99.90
51914;DHT22;37940;53.002;6.930;2023-03-14T07:57:25;5.40;99.90
51914;DHT22;37940;53.002;6.930;2023-03-14T07:59:51;5.40;99.90
51914;DHT22;37940;53.002;6.930;2023-03-14T08:02:18;5.00;99.90
51914;DHT22;37940;53.002;6.930;2023-03-14T08:04:48;5.10;99.90
51914;DHT22;37940;53.002;6.930;2023-03-14T08:07:14;4.70;99.90
51914;DHT22;37940;53.002;6.930;2023-03-14T08:09:40;5.10;99.90
51914;DHT22;37940;53.002;6.930;2023-03-14T08:12:06;4.20;99.90
51914;DHT22;37940;53.002;6.930;2023-03-14T08:14:32;4.20;99.90
51914;DHT22;37940;53.002;6.930;2023-03-14T08:16:58;4.00;99.90
51914;DHT22;37940;53.002;6.930;2023-03-14T08:19:23;3.90;99.90
51914;DHT22;37940;53.002;6.930;2023-03-14T08:21:50;3.80;99.90
51914;DHT22;37940;53.002;6.930;2023-03-14T08:24:16;3.70;99.90
51914;DHT22;37940;53.002;6.930;2023-03-14T08:26:41;4.00;99.90
51914;DHT22;37940;53.002;6.930;2023-03-14T08:29:07;3.60;99.90
51914;DHT22;37940;53.002;6.930;2023-03-14T08:31:34;3.50;99.90
51914;DHT22;37940;53.002;6.930;2023-03-14T08:34:01;3.60;99.90
51914;DHT22;37940;53.002;6.930;2023-03-14T08:36:27;3.60;99.90
51914;DHT22;37940;53.002;6.930;2023-03-14T08:38:53;3.70;99.90
51914;DHT22;37940;53.002;6.930;2023-03-14T08:41:19;4.70;99.90
51914;DHT22;37940;53.002;6.930;2023-03-14T08:43:45;3.70;99.90
51914;DHT22;37940;53.002;6.930;2023-03-14T08:46:11;3.80;99.90
51914;DHT22;37940;53.002;6.930;2023-03-14T08:48:36;3.80;99.90
51914;DHT22;37940;53.002;6.930;2023-03-14T08:51:10;4.40;99.90
51914;DHT22;37940;53.002;6.930;2023-03-14T08:53:38;4.10;99.90
51914;DHT22;37940;53.002;6.930;2023-03-14T08:56:04;4.90;99.90
51914;DHT22;37940;53.002;6.930;2023-03-14T08:58:34;4.00;99.90
51914;DHT22;37940;53.002;6.930;2023-03-14T09:01:02;4.00;99.90
51914;DHT22;37940;53.002;6.930;2023-03-14T09:03:28;4.00;99.90
51914;DHT22;37940;53.002;6.930;2023-03-14T09:05:54;4.30;99.90
51914;DHT22;37940;53.002;6.930;2023-03-14T09:08:22;4.10;99.90
51914;DHT22;37940;53.002;6.930;2023-03-14T09:10:47;4.20;99.90
51914;DHT22;37940;53.002;6.930;2023-03-14T09:13:13;4.50;99.90
51914;DHT22;37940;53.002;6.930;2023-03-14T09:15:39;4.50;99.90
51914;DHT22;37940;53.002;6.930;2023-03-14T09:18:05;4.70;99.90
51914;DHT22;37940;53.002;6.930;2023-03-14T09:20:30;4.50;99.90
51914;DHT22;37940;53.002;6.930;2023-03-14T09:22:56;5.00;99.90
51914;DHT22;37940;53.002;6.930;2023-03-14T09:25:22;4.60;99.90
51914;DHT22;37940;53.002;6.930;2023-03-14T09:27:47;4.80;99.90
51914;DHT22;37940;53.002;6.930;2023-03-14T09:30:13;4.60;99.90
51914;DHT22;37940;53.002;6.930;2023-03-14T09:32:39;4.70;99.90
51914;DHT22;37940;53.002;6.930;2023-03-14T09:35:05;5.10;99.90
51914;DHT22;37940;53.002;6.930;2023-03-14T09:37:31;4.80;99.90
51914;DHT22;37940;53.002;6.930;2023-03-14T09:39:56;4.80;99.90
51914;DHT22;37940;53.002;6.930;2023-03-14T09:42:25;5.10;99.90
51914;DHT22;37940;53.002;6.930;2023-03-14T09:44:59;4.80;99.90
51914;DHT22;37940;53.002;6.930;2023-03-14T09:47:26;5.00;99.90
51914;DHT22;37940;53.002;6.930;2023-03-14T09:49:52;5.60;99.90
51914;DHT22;37940;53.002;6.930;2023-03-14T09:52:24;5.20;99.90
51914;DHT22;37940;53.002;6.930;2023-03-14T09:54:59;5.60;99.90
51914;DHT22;37940;53.002;6.930;2023-03-14T09:57:28;5.70;99.90
51914;DHT22;37940;53.002;6.930;2023-03-14T09:59:57;5.80;99.90
51914;DHT22;37940;53.002;6.930;2023-03-14T10:02:31;6.20;99.90
51914;DHT22;37940;53.002;6.930;2023-03-14T10:04:59;6.10;99.90
51914;DHT22;37940;53.002;6.930;2023-03-14T10:07:29;6.30;99.90
51914;DHT22;37940;53.002;6.930;2023-03-14T10:09:56;6.10;99.90
51914;DHT22;37940;53.002;6.930;2023-03-14T10:12:33;6.10;99.90
51914;DHT22;37940;53.002;6.930;2023-03-14T10:15:04;6.00;99.90
51914;DHT22;37940;53.002;6.930;2023-03-14T10:17:42;6.10;99.90
51914;DHT22;37940;53.002;6.930;2023-03-14T10:20:28;6.10;99.90
51914;DHT22;37940;53.002;6.930;2023-03-14T10:23:02;6.20;99.90
51914;DHT22;37940;53.002;6.930;2023-03-14T10:25:34;6.40;99.90
51914;DHT22;37940;53.002;6.930;2023-03-14T10:28:00;6.40;99.90
51914;DHT22;37940;53.002;6.930;2023-03-14T10:30:39;6.40;99.90
51914;DHT22;37940;53.002;6.930;2023-03-14T10:33:28;6.50;99.90
51914;DHT22;37940;53.002;6.930;2023-03-14T10:36:03;6.50;99.90
51914;DHT22;37940;53.002;6.930;2023-03-14T10:38:31;6.50;99.90
51914;DHT22;37940;53.002;6.930;2023-03-14T10:40:57;6.50;99.90
51914;DHT22;37940;53.002;6.930;2023-03-14T10:43:32;6.90;99.90
51914;DHT22;37940;53.002;6.930;2023-03-14T10:46:12;6.30;99.90
51914;DHT22;37940;53.002;6.930;2023-03-14T10:48:39;6.20;99.90
51914;DHT22;37940;53.002;6.930;2023-03-14T10:56:17;6.20;99.90
51914;DHT22;37940;53.002;6.930;2023-03-14T10:58:45;6.30;99.90
51914;DHT22;37940;53.002;6.930;2023-03-14T11:04:44;6.30;99.90
51914;DHT22;37940;53.002;6.930;2023-03-14T11:07:44;6.40;99.90
51914;DHT22;37940;53.002;6.930;2023-03-14T11:10:32;6.60;99.90
51914;DHT22;37940;53.002;6.930;2023-03-14T11:15:49;6.60;99.90
51914;DHT22;37940;53.002;6.930;2023-03-14T11:18:46;6.60;99.90
51914;DHT22;37940;53.002;6.930;2023-03-14T11:24:12;6.70;99.90
51914;DHT22;37940;53.002;6.930;2023-03-14T11:29:20;6.80;99.90
51914;DHT22;37940;53.002;6.930;2023-03-14T11:31:46;6.90;99.90
51914;DHT22;37940;53.002;6.930;2023-03-14T11:37:05;6.90;99.90
51914;DHT22;37940;53.002;6.930;2023-03-14T11:39:40;6.70;99.90
51914;DHT22;37940;53.002;6.930;2023-03-14T11:42:11;6.60;99.90
51914;DHT22;37940;53.002;6.930;2023-03-14T11:44:39;6.50;99.90
51914;DHT22;37940;53.002;6.930;2023-03-14T11:49:40;6.70;99.90
51914;DHT22;37940;53.002;6.930;2023-03-14T11:52:13;7.00;99.90
51914;DHT22;37940;53.002;6.930;2023-03-14T11:54:53;7.30;99.90
51914;DHT22;37940;53.002;6.930;2023-03-14T11:57:21;7.20;99.90
51914;DHT22;37940;53.002;6.930;2023-03-14T12:00:17;7.20;99.90
51914;DHT22;37940;53.002;6.930;2023-03-14T12:10:40;7.10;99.90
51914;DHT22;37940;53.002;6.930;2023-03-14T12:13:13;7.10;99.90
51914;DHT22;37940;53.002;6.930;2023-03-14T12:15:54;7.10;99.90
51914;DHT22;37940;53.002;6.930;2023-03-14T12:20:58;7.20;99.90
51914;DHT22;37940;53.002;6.930;2023-03-14T12:23:26;7.10;99.90
51914;DHT22;37940;53.002;6.930;2023-03-14T12:28:42;7.20;99.90
51914;DHT22;37940;53.002;6.930;2023-03-14T12:44:47;7.80;99.90
51914;DHT22;37940;53.002;6.930;2023-03-14T12:49:50;8.00;99.90
51914;DHT22;37940;53.002;6.930;2023-03-14T12:52:43;8.00;99.90
51914;DHT22;37940;53.002;6.930;2023-03-14T12:55:20;7.80;99.90
51914;DHT22;37940;53.002;6.930;2023-03-14T13:00:55;7.30;99.90
51914;DHT22;37940;53.002;6.930;2023-03-14T13:03:36;7.30;99.90
51914;DHT22;37940;53.002;6.930;2023-03-14T13:06:03;7.30;99.90
51914;DHT22;37940;53.002;6.930;2023-03-14T13:08:37;7.30;99.90
51914;DHT22;37940;53.002;6.930;2023-03-14T13:11:04;7.10;99.90
51914;DHT22;37940;53.002;6.930;2023-03-14T13:13:34;7.00;99.90
51914;DHT22;37940;53.002;6.930;2023-03-14T13:16:01;6.90;99.90
51914;DHT22;37940;53.002;6.930;2023-03-14T13:18:40;6.70;99.90
51914;DHT22;37940;53.002;6.930;2023-03-14T13:21:23;6.70;99.90
51914;DHT22;37940;53.002;6.930;2023-03-14T13:24:04;6.70;99.90
51914;DHT22;37940;53.002;6.930;2023-03-14T13:26:40;6.70;99.90
51914;DHT22;37940;53.002;6.930;2023-03-14T13:29:25;7.10;99.90
51914;DHT22;37940;53.002;6.930;2023-03-14T13:31:54;7.20;99.90
51914;DHT22;37940;53.002;6.930;2023-03-14T13:34:34;7.10;99.90
51914;DHT22;37940;53.002;6.930;2023-03-14T13:37:00;7.10;99.90
51914;DHT22;37940;53.002;6.930;2023-03-14T13:39:27;7.00;99.90
51914;DHT22;37940;53.002;6.930;2023-03-14T13:41:59;6.80;99.90
51914;DHT22;37940;53.002;6.930;2023-03-14T13:44:38;6.60;99.90
51914;DHT22;37940;53.002;6.930;2023-03-14T13:47:09;6.50;99.90
51914;DHT22;37940;53.002;6.930;2023-03-14T13:49:37;6.60;99.90
51914;DHT22;37940;53.002;6.930;2023-03-14T13:52:04;6.70;99.90
51914;DHT22;37940;53.002;6.930;2023-03-14T13:54:46;6.60;99.90
51914;DHT22;37940;53.002;6.930;2023-03-14T13:57:12;6.60;99.90
51914;DHT22;37940;53.002;6.930;2023-03-14T13:59:37;6.60;99.90
51914;DHT22;37940;53.002;6.930;2023-03-14T14:02:12;6.60;99.90
51914;DHT22;37940;53.002;6.930;2023-03-14T14:04:38;6.60;99.90
51914;DHT22;37940;53.002;6.930;2023-03-14T14:07:10;6.70;99.90
51914;DHT22;37940;53.002;6.930;2023-03-14T14:09:49;6.70;99.90
51914;DHT22;37940;53.002;6.930;2023-03-14T14:12:18;6.80;99.90
51914;DHT22;37940;53.002;6.930;2023-03-14T14:15:20;6.90;99.90
51914;DHT22;37940;53.002;6.930;2023-03-14T14:17:50;7.00;99.90
51914;DHT22;37940;53.002;6.930;2023-03-14T14:20:26;7.10;99.90
51914;DHT22;37940;53.002;6.930;2023-03-14T14:22:57;7.20;99.90
51914;DHT22;37940;53.002;6.930;2023-03-14T14:25:24;7.20;99.90
51914;DHT22;37940;53.002;6.930;2023-03-14T14:27:50;7.20;99.90
51914;DHT22;37940;53.002;6.930;2023-03-14T14:32:47;7.20;99.90
51914;DHT22;37940;53.002;6.930;2023-03-14T14:37:53;7.30;99.90
51914;DHT22;37940;53.002;6.930;2023-03-14T14:40:30;7.20;99.90
51914;DHT22;37940;53.002;6.930;2023-03-14T14:43:03;7.10;99.90
51914;DHT22;37940;53.002;6.930;2023-03-14T14:45:29;7.00;99.90
51914;DHT22;37940;53.002;6.930;2023-03-14T14:48:17;7.40;99.90
51914;DHT22;37940;53.002;6.930;2023-03-14T14:53:31;6.80;99.90
51914;DHT22;37940;53.002;6.930;2023-03-14T14:56:07;6.60;99.90
51914;DHT22;37940;53.002;6.930;2023-03-14T14:58:40;6.50;99.90
51914;DHT22;37940;53.002;6.930;2023-03-14T15:01:22;6.50;99.90
51914;DHT22;37940;53.002;6.930;2023-03-14T15:03:51;6.50;99.90
51914;DHT22;37940;53.002;6.930;2023-03-14T15:06:18;6.50;99.90
51914;DHT22;37940;53.002;6.930;2023-03-14T15:08:46;6.50;99.90
51914;DHT22;37940;53.002;6.930;2023-03-14T15:11:23;6.40;99.90
51914;DHT22;37940;53.002;6.930;2023-03-14T15:13:50;6.70;99.90
51914;DHT22;37940;53.002;6.930;2023-03-14T15:16:19;6.40;99.90
51914;DHT22;37940;53.002;6.930;2023-03-14T15:18:53;6.30;99.90
51914;DHT22;37940;53.002;6.930;2023-03-14T15:21:21;6.30;99.90
51914;DHT22;37940;53.002;6.930;2023-03-14T15:23:47;6.30;99.90
51914;DHT22;37940;53.002;6.930;2023-03-14T15:26:16;6.30;99.90
51914;DHT22;37940;53.002;6.930;2023-03-14T15:28:43;6.30;99.90
51914;DHT22;37940;53.002;6.930;2023-03-14T15:31:10;6.30;99.90
51914;DHT22;37940;53.002;6.930;2023-03-14T15:33:36;6.30;99.90
51914;DHT22;37940;53.002;6.930;2023-03-14T15:36:03;6.20;99.90
51914;DHT22;37940;53.002;6.930;2023-03-14T15:38:29;6.20;99.90
51914;DHT22;37940;53.002;6.930;2023-03-14T15:40:55;6.00;99.90
51914;DHT22;37940;53.002;6.930;2023-03-14T15:43:21;5.90;99.90
51914;DHT22;37940;53.002;6.930;2023-03-14T15:45:46;5.80;99.90
51914;DHT22;37940;53.002;6.930;2023-03-14T15:48:15;5.70;99.90
51914;DHT22;37940;53.002;6.930;2023-03-14T15:50:41;5.60;99.90
51914;DHT22;37940;53.002;6.930;2023-03-14T15:53:07;5.50;99.90
51914;DHT22;37940;53.002;6.930;2023-03-14T15:55:33;5.50;99.90
51914;DHT22;37940;53.002;6.930;2023-03-14T15:57:59;5.40;99.90
51914;DHT22;37940;53.002;6.930;2023-03-14T16:00:26;5.50;99.90
51914;DHT22;37940;53.002;6.930;2023-03-14T16:02:51;5.40;99.90
51914;DHT22;37940;53.002;6.930;2023-03-14T16:05:17;5.40;99.90
51914;DHT22;37940;53.002;6.930;2023-03-14T16:07:46;5.40;99.90
51914;DHT22;37940;53.002;6.930;2023-03-14T16:10:13;5.40;99.90
51914;DHT22;37940;53.002;6.930;2023-03-14T16:12:39;5.30;99.90
51914;DHT22;37940;53.002;6.930;2023-03-14T16:15:05;5.60;99.90
51914;DHT22;37940;53.002;6.930;2023-03-14T16:17:32;5.20;99.90
51914;DHT22;37940;53.002;6.930;2023-03-14T16:19:58;5.80;99.90
51914;DHT22;37940;53.002;6.930;2023-03-14T16:22:23;5.00;99.90
51914;DHT22;37940;53.002;6.930;2023-03-14T16:24:49;5.30;99.90
51914;DHT22;37940;53.002;6.930;2023-03-14T16:27:15;4.90;99.90
51914;DHT22;37940;53.002;6.930;2023-03-14T16:29:41;4.80;99.90
51914;DHT22;37940;53.002;6.930;2023-03-14T16:32:11;4.80;99.90
51914;DHT22;37940;53.002;6.930;2023-03-14T16:34:39;4.80;99.90
51914;DHT22;37940;53.002;6.930;2023-03-14T16:37:05;5.10;99.90
51914;DHT22;37940;53.002;6.930;2023-03-14T16:39:31;4.70;99.90
51914;DHT22;37940;53.002;6.930;2023-03-14T16:41:58;4.70;99.90
51914;DHT22;37940;53.002;6.930;2023-03-14T16:44:24;5.50;99.90
51914;DHT22;37940;53.002;6.930;2023-03-14T16:46:49;4.60;99.90
51914;DHT22;37940;53.002;6.930;2023-03-14T16:49:15;4.50;99.90
51914;DHT22;37940;53.002;6.930;2023-03-14T16:51:41;5.30;99.90
51914;DHT22;37940;53.002;6.930;2023-03-14T16:54:08;4.50;99.90
51914;DHT22;37940;53.002;6.930;2023-03-14T16:56:34;4.40;99.90
51914;DHT22;37940;53.002;6.930;2023-03-14T16:59:00;4.30;99.90
51914;DHT22;37940;53.002;6.930;2023-03-14T17:01:25;4.60;99.90
51914;DHT22;37940;53.002;6.930;2023-03-14T17:03:51;4.40;99.90
51914;DHT22;37940;53.002;6.930;2023-03-14T17:06:22;4.10;99.90